<?xml version="1.0" encoding="UTF-8" standalone="no" ?>
<gpx xmlns="http://www.topografix.com/GPX/1/1" xmlns:xsi="http://www.w3.org/2001/XMLSchema-instance" xsi:schemaLocation="http://www.topografix.com/GPX/1/1 http://www.topografix.com/GPX/1/1/gpx.xsd" version="1.1" creator="VisuGPX - https://www.visugpx.com">
  <metadata>
    <name>14144681-Sylve Bénite G3 après reco</name>
  </metadata>
  <trk>
    <name><![CDATA[14144681-Sylve Bénite G3 après reco]]></name>
    <trkseg>
      <trkpt lat="45.45957" lon="5.45629">
        <ele>460</ele>
        <time>2022-01-18T16:27:29Z</time>
      </trkpt>
      <trkpt lat="45.45949" lon="5.4562">
        <ele>461</ele>
        <time>2022-01-18T16:27:43Z</time>
      </trkpt>
      <trkpt lat="45.45938" lon="5.45635">
        <ele>465</ele>
        <time>2022-01-18T16:28:03Z</time>
      </trkpt>
      <trkpt lat="45.45904" lon="5.4577">
        <ele>479</ele>
        <time>2022-01-18T16:30:17Z</time>
      </trkpt>
      <trkpt lat="45.45906" lon="5.4578">
        <ele>479</ele>
        <time>2022-01-18T16:30:27Z</time>
      </trkpt>
      <trkpt lat="45.45895" lon="5.45776">
        <ele>482</ele>
        <time>2022-01-18T16:30:42Z</time>
      </trkpt>
      <trkpt lat="45.45889" lon="5.45761">
        <ele>483</ele>
        <time>2022-01-18T16:30:58Z</time>
      </trkpt>
      <trkpt lat="45.45885" lon="5.45744">
        <ele>483</ele>
        <time>2022-01-18T16:31:15Z</time>
      </trkpt>
      <trkpt lat="45.45888" lon="5.45694">
        <ele>478</ele>
        <time>2022-01-18T16:32:02Z</time>
      </trkpt>
      <trkpt lat="45.45886" lon="5.45686">
        <ele>478</ele>
        <time>2022-01-18T16:32:10Z</time>
      </trkpt>
      <trkpt lat="45.45885" lon="5.45682">
        <ele>478</ele>
        <time>2022-01-18T16:32:14Z</time>
      </trkpt>
      <trkpt lat="45.45886" lon="5.45686">
        <ele>478</ele>
        <time>2022-01-18T16:32:18Z</time>
      </trkpt>
      <trkpt lat="45.4588" lon="5.45684">
        <ele>479</ele>
        <time>2022-01-18T16:32:26Z</time>
      </trkpt>
      <trkpt lat="45.45875" lon="5.45687">
        <ele>480</ele>
        <time>2022-01-18T16:32:33Z</time>
      </trkpt>
      <trkpt lat="45.45868" lon="5.45711">
        <ele>483</ele>
        <time>2022-01-18T16:32:58Z</time>
      </trkpt>
      <trkpt lat="45.45845" lon="5.45752">
        <ele>494</ele>
        <time>2022-01-18T16:33:47Z</time>
      </trkpt>
      <trkpt lat="45.45824" lon="5.45768">
        <ele>500</ele>
        <time>2022-01-18T16:34:19Z</time>
      </trkpt>
      <trkpt lat="45.45816" lon="5.45778">
        <ele>502</ele>
        <time>2022-01-18T16:34:33Z</time>
      </trkpt>
      <trkpt lat="45.45797" lon="5.45856">
        <ele>514</ele>
        <time>2022-01-18T16:35:50Z</time>
      </trkpt>
      <trkpt lat="45.45797" lon="5.459">
        <ele>519</ele>
        <time>2022-01-18T16:36:31Z</time>
      </trkpt>
      <trkpt lat="45.4579" lon="5.45934">
        <ele>525</ele>
        <time>2022-01-18T16:37:04Z</time>
      </trkpt>
      <trkpt lat="45.45769" lon="5.45959">
        <ele>533</ele>
        <time>2022-01-18T16:37:41Z</time>
      </trkpt>
      <trkpt lat="45.45755" lon="5.46001">
        <ele>542</ele>
        <time>2022-01-18T16:38:24Z</time>
      </trkpt>
      <trkpt lat="45.45738" lon="5.46037">
        <ele>549</ele>
        <time>2022-01-18T16:39:05Z</time>
      </trkpt>
      <trkpt lat="45.45729" lon="5.46076">
        <ele>555</ele>
        <time>2022-01-18T16:39:44Z</time>
      </trkpt>
      <trkpt lat="45.4571" lon="5.46094">
        <ele>561</ele>
        <time>2022-01-18T16:40:14Z</time>
      </trkpt>
      <trkpt lat="45.45693" lon="5.46094">
        <ele>564</ele>
        <time>2022-01-18T16:40:37Z</time>
      </trkpt>
      <trkpt lat="45.45649" lon="5.4606">
        <ele>564</ele>
        <time>2022-01-18T16:41:43Z</time>
      </trkpt>
      <trkpt lat="45.4563" lon="5.4605">
        <ele>566</ele>
        <time>2022-01-18T16:42:10Z</time>
      </trkpt>
      <trkpt lat="45.45596" lon="5.45997">
        <ele>562</ele>
        <time>2022-01-18T16:43:18Z</time>
      </trkpt>
      <trkpt lat="45.45574" lon="5.45946">
        <ele>561</ele>
        <time>2022-01-18T16:44:14Z</time>
      </trkpt>
      <trkpt lat="45.45446" lon="5.45961">
        <ele>580</ele>
        <time>2022-01-18T16:47:05Z</time>
      </trkpt>
      <trkpt lat="45.45381" lon="5.45915">
        <ele>573</ele>
        <time>2022-01-18T16:48:42Z</time>
      </trkpt>
      <trkpt lat="45.45368" lon="5.45914">
        <ele>573</ele>
        <time>2022-01-18T16:48:59Z</time>
      </trkpt>
      <trkpt lat="45.45359" lon="5.4593">
        <ele>576</ele>
        <time>2022-01-18T16:49:19Z</time>
      </trkpt>
      <trkpt lat="45.45347" lon="5.46005">
        <ele>592</ele>
        <time>2022-01-18T16:50:31Z</time>
      </trkpt>
      <trkpt lat="45.453" lon="5.45982">
        <ele>590</ele>
        <time>2022-01-18T16:51:37Z</time>
      </trkpt>
      <trkpt lat="45.45276" lon="5.45974">
        <ele>590</ele>
        <time>2022-01-18T16:52:10Z</time>
      </trkpt>
      <trkpt lat="45.45229" lon="5.45953">
        <ele>587</ele>
        <time>2022-01-18T16:53:15Z</time>
      </trkpt>
      <trkpt lat="45.45214" lon="5.45952">
        <ele>587</ele>
        <time>2022-01-18T16:53:36Z</time>
      </trkpt>
      <trkpt lat="45.45193" lon="5.45958">
        <ele>588</ele>
        <time>2022-01-18T16:54:04Z</time>
      </trkpt>
      <trkpt lat="45.4517" lon="5.4596">
        <ele>589</ele>
        <time>2022-01-18T16:54:35Z</time>
      </trkpt>
      <trkpt lat="45.45137" lon="5.45958">
        <ele>587</ele>
        <time>2022-01-18T16:55:19Z</time>
      </trkpt>
      <trkpt lat="45.45097" lon="5.45948">
        <ele>582</ele>
        <time>2022-01-18T16:56:13Z</time>
      </trkpt>
      <trkpt lat="45.45083" lon="5.45947">
        <ele>581</ele>
        <time>2022-01-18T16:56:32Z</time>
      </trkpt>
      <trkpt lat="45.45065" lon="5.45953">
        <ele>580</ele>
        <time>2022-01-18T16:56:56Z</time>
      </trkpt>
      <trkpt lat="45.45042" lon="5.45972">
        <ele>581</ele>
        <time>2022-01-18T16:57:32Z</time>
      </trkpt>
      <trkpt lat="45.45005" lon="5.46008">
        <ele>581</ele>
        <time>2022-01-18T16:58:32Z</time>
      </trkpt>
      <trkpt lat="45.44983" lon="5.46011">
        <ele>578</ele>
        <time>2022-01-18T16:59:01Z</time>
      </trkpt>
      <trkpt lat="45.44969" lon="5.46019">
        <ele>577</ele>
        <time>2022-01-18T16:59:21Z</time>
      </trkpt>
      <trkpt lat="45.44958" lon="5.46031">
        <ele>577</ele>
        <time>2022-01-18T16:59:40Z</time>
      </trkpt>
      <trkpt lat="45.44943" lon="5.46064">
        <ele>578</ele>
        <time>2022-01-18T17:00:17Z</time>
      </trkpt>
      <trkpt lat="45.44939" lon="5.4607">
        <ele>578</ele>
        <time>2022-01-18T17:00:24Z</time>
      </trkpt>
      <trkpt lat="45.44931" lon="5.46069">
        <ele>577</ele>
        <time>2022-01-18T17:00:35Z</time>
      </trkpt>
      <trkpt lat="45.44906" lon="5.46055">
        <ele>575</ele>
        <time>2022-01-18T17:01:11Z</time>
      </trkpt>
      <trkpt lat="45.44891" lon="5.46034">
        <ele>576</ele>
        <time>2022-01-18T17:01:39Z</time>
      </trkpt>
      <trkpt lat="45.44881" lon="5.46007">
        <ele>575</ele>
        <time>2022-01-18T17:02:08Z</time>
      </trkpt>
      <trkpt lat="45.44869" lon="5.45957">
        <ele>572</ele>
        <time>2022-01-18T17:02:57Z</time>
      </trkpt>
      <trkpt lat="45.44859" lon="5.45922">
        <ele>570</ele>
        <time>2022-01-18T17:03:32Z</time>
      </trkpt>
      <trkpt lat="45.44848" lon="5.459">
        <ele>569</ele>
        <time>2022-01-18T17:03:58Z</time>
      </trkpt>
      <trkpt lat="45.44835" lon="5.45884">
        <ele>570</ele>
        <time>2022-01-18T17:04:21Z</time>
      </trkpt>
      <trkpt lat="45.44812" lon="5.45863">
        <ele>568</ele>
        <time>2022-01-18T17:04:57Z</time>
      </trkpt>
      <trkpt lat="45.44772" lon="5.45831">
        <ele>563</ele>
        <time>2022-01-18T17:05:58Z</time>
      </trkpt>
      <trkpt lat="45.44768" lon="5.45817">
        <ele>561</ele>
        <time>2022-01-18T17:06:12Z</time>
      </trkpt>
      <trkpt lat="45.44767" lon="5.45792">
        <ele>556</ele>
        <time>2022-01-18T17:06:36Z</time>
      </trkpt>
      <trkpt lat="45.44772" lon="5.45771">
        <ele>553</ele>
        <time>2022-01-18T17:06:57Z</time>
      </trkpt>
      <trkpt lat="45.4481" lon="5.45675">
        <ele>532</ele>
        <time>2022-01-18T17:08:40Z</time>
      </trkpt>
      <trkpt lat="45.44848" lon="5.45572">
        <ele>518</ele>
        <time>2022-01-18T17:10:29Z</time>
      </trkpt>
      <trkpt lat="45.44854" lon="5.45551">
        <ele>516</ele>
        <time>2022-01-18T17:10:50Z</time>
      </trkpt>
      <trkpt lat="45.44862" lon="5.45509">
        <ele>513</ele>
        <time>2022-01-18T17:11:31Z</time>
      </trkpt>
      <trkpt lat="45.44867" lon="5.45517">
        <ele>513</ele>
        <time>2022-01-18T17:11:41Z</time>
      </trkpt>
      <trkpt lat="45.44859" lon="5.45505">
        <ele>513</ele>
        <time>2022-01-18T17:11:56Z</time>
      </trkpt>
      <trkpt lat="45.44791" lon="5.45455">
        <ele>512</ele>
        <time>2022-01-18T17:13:38Z</time>
      </trkpt>
      <trkpt lat="45.44755" lon="5.45423">
        <ele>510</ele>
        <time>2022-01-18T17:14:35Z</time>
      </trkpt>
      <trkpt lat="45.44551" lon="5.45214">
        <ele>506</ele>
        <time>2022-01-18T17:20:10Z</time>
      </trkpt>
      <trkpt lat="45.44482" lon="5.45187">
        <ele>504</ele>
        <time>2022-01-18T17:21:46Z</time>
      </trkpt>
      <trkpt lat="45.44465" lon="5.45177">
        <ele>503</ele>
        <time>2022-01-18T17:22:10Z</time>
      </trkpt>
      <trkpt lat="45.44433" lon="5.4515">
        <ele>502</ele>
        <time>2022-01-18T17:23:00Z</time>
      </trkpt>
      <trkpt lat="45.44409" lon="5.45115">
        <ele>501</ele>
        <time>2022-01-18T17:23:46Z</time>
      </trkpt>
      <trkpt lat="45.44363" lon="5.45075">
        <ele>495</ele>
        <time>2022-01-18T17:24:58Z</time>
      </trkpt>
      <trkpt lat="45.44366" lon="5.45094">
        <ele>496</ele>
        <time>2022-01-18T17:25:16Z</time>
      </trkpt>
      <trkpt lat="45.44364" lon="5.45115">
        <ele>495</ele>
        <time>2022-01-18T17:25:36Z</time>
      </trkpt>
      <trkpt lat="45.44335" lon="5.45165">
        <ele>493</ele>
        <time>2022-01-18T17:26:37Z</time>
      </trkpt>
      <trkpt lat="45.44302" lon="5.45164">
        <ele>493</ele>
        <time>2022-01-18T17:27:21Z</time>
      </trkpt>
      <trkpt lat="45.44295" lon="5.45165">
        <ele>493</ele>
        <time>2022-01-18T17:27:30Z</time>
      </trkpt>
      <trkpt lat="45.44282" lon="5.4517">
        <ele>493</ele>
        <time>2022-01-18T17:27:48Z</time>
      </trkpt>
      <trkpt lat="45.44261" lon="5.45187">
        <ele>495</ele>
        <time>2022-01-18T17:28:20Z</time>
      </trkpt>
      <trkpt lat="45.44228" lon="5.45219">
        <ele>500</ele>
        <time>2022-01-18T17:29:13Z</time>
      </trkpt>
      <trkpt lat="45.44216" lon="5.4524">
        <ele>502</ele>
        <time>2022-01-18T17:29:39Z</time>
      </trkpt>
      <trkpt lat="45.44171" lon="5.45294">
        <ele>507</ele>
        <time>2022-01-18T17:30:57Z</time>
      </trkpt>
      <trkpt lat="45.44154" lon="5.45311">
        <ele>507</ele>
        <time>2022-01-18T17:31:25Z</time>
      </trkpt>
      <trkpt lat="45.44135" lon="5.45324">
        <ele>507</ele>
        <time>2022-01-18T17:31:53Z</time>
      </trkpt>
      <trkpt lat="45.44098" lon="5.45339">
        <ele>507</ele>
        <time>2022-01-18T17:32:44Z</time>
      </trkpt>
      <trkpt lat="45.44084" lon="5.4536">
        <ele>510</ele>
        <time>2022-01-18T17:33:12Z</time>
      </trkpt>
      <trkpt lat="45.44064" lon="5.45375">
        <ele>513</ele>
        <time>2022-01-18T17:33:42Z</time>
      </trkpt>
      <trkpt lat="45.44052" lon="5.4538">
        <ele>514</ele>
        <time>2022-01-18T17:33:58Z</time>
      </trkpt>
      <trkpt lat="45.44015" lon="5.4539">
        <ele>518</ele>
        <time>2022-01-18T17:34:49Z</time>
      </trkpt>
      <trkpt lat="45.43979" lon="5.45389">
        <ele>518</ele>
        <time>2022-01-18T17:35:37Z</time>
      </trkpt>
      <trkpt lat="45.43965" lon="5.45391">
        <ele>519</ele>
        <time>2022-01-18T17:35:55Z</time>
      </trkpt>
      <trkpt lat="45.43953" lon="5.45397">
        <ele>520</ele>
        <time>2022-01-18T17:36:12Z</time>
      </trkpt>
      <trkpt lat="45.43941" lon="5.45408">
        <ele>523</ele>
        <time>2022-01-18T17:36:31Z</time>
      </trkpt>
      <trkpt lat="45.43922" lon="5.4543">
        <ele>529</ele>
        <time>2022-01-18T17:37:04Z</time>
      </trkpt>
      <trkpt lat="45.43906" lon="5.45444">
        <ele>533</ele>
        <time>2022-01-18T17:37:29Z</time>
      </trkpt>
      <trkpt lat="45.43873" lon="5.45464">
        <ele>540</ele>
        <time>2022-01-18T17:38:17Z</time>
      </trkpt>
      <trkpt lat="45.43854" lon="5.45482">
        <ele>546</ele>
        <time>2022-01-18T17:38:48Z</time>
      </trkpt>
      <trkpt lat="45.43829" lon="5.45515">
        <ele>558</ele>
        <time>2022-01-18T17:39:33Z</time>
      </trkpt>
      <trkpt lat="45.43781" lon="5.45541">
        <ele>570</ele>
        <time>2022-01-18T17:40:42Z</time>
      </trkpt>
      <trkpt lat="45.43756" lon="5.45571">
        <ele>579</ele>
        <time>2022-01-18T17:41:25Z</time>
      </trkpt>
      <trkpt lat="45.43744" lon="5.45576">
        <ele>580</ele>
        <time>2022-01-18T17:41:42Z</time>
      </trkpt>
      <trkpt lat="45.43691" lon="5.45587">
        <ele>582</ele>
        <time>2022-01-18T17:42:53Z</time>
      </trkpt>
      <trkpt lat="45.43675" lon="5.45599">
        <ele>584</ele>
        <time>2022-01-18T17:43:17Z</time>
      </trkpt>
      <trkpt lat="45.43662" lon="5.45622">
        <ele>587</ele>
        <time>2022-01-18T17:43:45Z</time>
      </trkpt>
      <trkpt lat="45.43676" lon="5.45623">
        <ele>588</ele>
        <time>2022-01-18T17:44:04Z</time>
      </trkpt>
      <trkpt lat="45.43662" lon="5.45622">
        <ele>587</ele>
        <time>2022-01-18T17:44:22Z</time>
      </trkpt>
      <trkpt lat="45.43602" lon="5.45645">
        <ele>589</ele>
        <time>2022-01-18T17:45:45Z</time>
      </trkpt>
      <trkpt lat="45.43569" lon="5.45664">
        <ele>589</ele>
        <time>2022-01-18T17:46:33Z</time>
      </trkpt>
      <trkpt lat="45.43562" lon="5.45677">
        <ele>591</ele>
        <time>2022-01-18T17:46:48Z</time>
      </trkpt>
      <trkpt lat="45.43496" lon="5.45731">
        <ele>594</ele>
        <time>2022-01-18T17:48:30Z</time>
      </trkpt>
      <trkpt lat="45.43477" lon="5.45742">
        <ele>593</ele>
        <time>2022-01-18T17:48:57Z</time>
      </trkpt>
      <trkpt lat="45.43433" lon="5.45763">
        <ele>590</ele>
        <time>2022-01-18T17:49:59Z</time>
      </trkpt>
      <trkpt lat="45.43421" lon="5.45776">
        <ele>590</ele>
        <time>2022-01-18T17:50:19Z</time>
      </trkpt>
      <trkpt lat="45.43387" lon="5.45833">
        <ele>591</ele>
        <time>2022-01-18T17:51:29Z</time>
      </trkpt>
      <trkpt lat="45.43329" lon="5.45921">
        <ele>586</ele>
        <time>2022-01-18T17:53:22Z</time>
      </trkpt>
      <trkpt lat="45.4331" lon="5.45955">
        <ele>587</ele>
        <time>2022-01-18T17:54:03Z</time>
      </trkpt>
      <trkpt lat="45.43295" lon="5.45991">
        <ele>587</ele>
        <time>2022-01-18T17:54:42Z</time>
      </trkpt>
      <trkpt lat="45.43281" lon="5.46035">
        <ele>588</ele>
        <time>2022-01-18T17:55:27Z</time>
      </trkpt>
      <trkpt lat="45.43264" lon="5.46078">
        <ele>589</ele>
        <time>2022-01-18T17:56:14Z</time>
      </trkpt>
      <trkpt lat="45.43241" lon="5.46111">
        <ele>588</ele>
        <time>2022-01-18T17:56:57Z</time>
      </trkpt>
      <trkpt lat="45.43173" lon="5.46181">
        <ele>586</ele>
        <time>2022-01-18T17:58:49Z</time>
      </trkpt>
      <trkpt lat="45.43154" lon="5.46241">
        <ele>584</ele>
        <time>2022-01-18T17:59:51Z</time>
      </trkpt>
      <trkpt lat="45.43129" lon="5.46307">
        <ele>581</ele>
        <time>2022-01-18T18:01:01Z</time>
      </trkpt>
      <trkpt lat="45.43112" lon="5.46366">
        <ele>580</ele>
        <time>2022-01-18T18:02:01Z</time>
      </trkpt>
      <trkpt lat="45.43101" lon="5.46473">
        <ele>580</ele>
        <time>2022-01-18T18:03:42Z</time>
      </trkpt>
      <trkpt lat="45.43103" lon="5.46487">
        <ele>580</ele>
        <time>2022-01-18T18:03:55Z</time>
      </trkpt>
      <trkpt lat="45.43131" lon="5.46584">
        <ele>582</ele>
        <time>2022-01-18T18:05:34Z</time>
      </trkpt>
      <trkpt lat="45.43194" lon="5.46707">
        <ele>586</ele>
        <time>2022-01-18T18:07:56Z</time>
      </trkpt>
      <trkpt lat="45.43209" lon="5.46731">
        <ele>586</ele>
        <time>2022-01-18T18:08:26Z</time>
      </trkpt>
      <trkpt lat="45.43231" lon="5.46778">
        <ele>585</ele>
        <time>2022-01-18T18:09:19Z</time>
      </trkpt>
      <trkpt lat="45.43243" lon="5.46826">
        <ele>585</ele>
        <time>2022-01-18T18:10:07Z</time>
      </trkpt>
      <trkpt lat="45.43254" lon="5.46897">
        <ele>585</ele>
        <time>2022-01-18T18:11:15Z</time>
      </trkpt>
      <trkpt lat="45.43276" lon="5.46958">
        <ele>587</ele>
        <time>2022-01-18T18:12:19Z</time>
      </trkpt>
      <trkpt lat="45.43276" lon="5.46971">
        <ele>587</ele>
        <time>2022-01-18T18:12:31Z</time>
      </trkpt>
      <trkpt lat="45.43294" lon="5.47121">
        <ele>585</ele>
        <time>2022-01-18T18:14:54Z</time>
      </trkpt>
      <trkpt lat="45.43304" lon="5.47161">
        <ele>583</ele>
        <time>2022-01-18T18:15:34Z</time>
      </trkpt>
      <trkpt lat="45.43358" lon="5.4722">
        <ele>587</ele>
        <time>2022-01-18T18:17:05Z</time>
      </trkpt>
      <trkpt lat="45.43373" lon="5.47248">
        <ele>587</ele>
        <time>2022-01-18T18:17:38Z</time>
      </trkpt>
      <trkpt lat="45.43396" lon="5.47313">
        <ele>584</ele>
        <time>2022-01-18T18:18:46Z</time>
      </trkpt>
      <trkpt lat="45.4345" lon="5.4737">
        <ele>588</ele>
        <time>2022-01-18T18:20:15Z</time>
      </trkpt>
      <trkpt lat="45.43471" lon="5.47399">
        <ele>588</ele>
        <time>2022-01-18T18:20:54Z</time>
      </trkpt>
      <trkpt lat="45.43506" lon="5.47463">
        <ele>585</ele>
        <time>2022-01-18T18:22:10Z</time>
      </trkpt>
      <trkpt lat="45.4352" lon="5.47479">
        <ele>585</ele>
        <time>2022-01-18T18:22:34Z</time>
      </trkpt>
      <trkpt lat="45.43545" lon="5.47495">
        <ele>584</ele>
        <time>2022-01-18T18:23:11Z</time>
      </trkpt>
      <trkpt lat="45.43583" lon="5.47515">
        <ele>584</ele>
        <time>2022-01-18T18:24:05Z</time>
      </trkpt>
      <trkpt lat="45.43643" lon="5.4754">
        <ele>588</ele>
        <time>2022-01-18T18:25:28Z</time>
      </trkpt>
      <trkpt lat="45.43687" lon="5.47562">
        <ele>590</ele>
        <time>2022-01-18T18:26:31Z</time>
      </trkpt>
      <trkpt lat="45.43739" lon="5.47593">
        <ele>593</ele>
        <time>2022-01-18T18:27:46Z</time>
      </trkpt>
      <trkpt lat="45.43809" lon="5.47628">
        <ele>598</ele>
        <time>2022-01-18T18:29:25Z</time>
      </trkpt>
      <trkpt lat="45.43861" lon="5.47645">
        <ele>602</ele>
        <time>2022-01-18T18:30:36Z</time>
      </trkpt>
      <trkpt lat="45.43928" lon="5.47657">
        <ele>606</ele>
        <time>2022-01-18T18:32:06Z</time>
      </trkpt>
      <trkpt lat="45.43965" lon="5.47683">
        <ele>609</ele>
        <time>2022-01-18T18:33:01Z</time>
      </trkpt>
      <trkpt lat="45.43979" lon="5.47696">
        <ele>611</ele>
        <time>2022-01-18T18:33:23Z</time>
      </trkpt>
      <trkpt lat="45.4402" lon="5.47697">
        <ele>616</ele>
        <time>2022-01-18T18:34:18Z</time>
      </trkpt>
      <trkpt lat="45.44043" lon="5.47681">
        <ele>621</ele>
        <time>2022-01-18T18:34:52Z</time>
      </trkpt>
      <trkpt lat="45.4405" lon="5.47679">
        <ele>622</ele>
        <time>2022-01-18T18:35:02Z</time>
      </trkpt>
      <trkpt lat="45.4408" lon="5.47692">
        <ele>626</ele>
        <time>2022-01-18T18:35:44Z</time>
      </trkpt>
      <trkpt lat="45.44109" lon="5.47712">
        <ele>627</ele>
        <time>2022-01-18T18:36:27Z</time>
      </trkpt>
      <trkpt lat="45.44123" lon="5.47741">
        <ele>626</ele>
        <time>2022-01-18T18:37:00Z</time>
      </trkpt>
      <trkpt lat="45.44125" lon="5.47772">
        <ele>624</ele>
        <time>2022-01-18T18:37:29Z</time>
      </trkpt>
      <trkpt lat="45.44129" lon="5.4778">
        <ele>624</ele>
        <time>2022-01-18T18:37:38Z</time>
      </trkpt>
      <trkpt lat="45.44148" lon="5.47796">
        <ele>624</ele>
        <time>2022-01-18T18:38:07Z</time>
      </trkpt>
      <trkpt lat="45.4418" lon="5.47838">
        <ele>624</ele>
        <time>2022-01-18T18:39:06Z</time>
      </trkpt>
      <trkpt lat="45.442" lon="5.47855">
        <ele>625</ele>
        <time>2022-01-18T18:39:37Z</time>
      </trkpt>
      <trkpt lat="45.44218" lon="5.47858">
        <ele>627</ele>
        <time>2022-01-18T18:40:01Z</time>
      </trkpt>
      <trkpt lat="45.4425" lon="5.47894">
        <ele>626</ele>
        <time>2022-01-18T18:40:55Z</time>
      </trkpt>
      <trkpt lat="45.44313" lon="5.47933">
        <ele>621</ele>
        <time>2022-01-18T18:42:27Z</time>
      </trkpt>
      <trkpt lat="45.44337" lon="5.47952">
        <ele>619</ele>
        <time>2022-01-18T18:43:03Z</time>
      </trkpt>
      <trkpt lat="45.44353" lon="5.47969">
        <ele>618</ele>
        <time>2022-01-18T18:43:30Z</time>
      </trkpt>
      <trkpt lat="45.44374" lon="5.48001">
        <ele>618</ele>
        <time>2022-01-18T18:44:11Z</time>
      </trkpt>
      <trkpt lat="45.44443" lon="5.48124">
        <ele>610</ele>
        <time>2022-01-18T18:46:39Z</time>
      </trkpt>
      <trkpt lat="45.44458" lon="5.48139">
        <ele>608</ele>
        <time>2022-01-18T18:47:03Z</time>
      </trkpt>
      <trkpt lat="45.44439" lon="5.48133">
        <ele>607</ele>
        <time>2022-01-18T18:47:29Z</time>
      </trkpt>
      <trkpt lat="45.44458" lon="5.48139">
        <ele>608</ele>
        <time>2022-01-18T18:47:55Z</time>
      </trkpt>
      <trkpt lat="45.44511" lon="5.48156">
        <ele>609</ele>
        <time>2022-01-18T18:49:07Z</time>
      </trkpt>
      <trkpt lat="45.44509" lon="5.48178">
        <ele>606</ele>
        <time>2022-01-18T18:49:28Z</time>
      </trkpt>
      <trkpt lat="45.44511" lon="5.48156">
        <ele>609</ele>
        <time>2022-01-18T18:49:49Z</time>
      </trkpt>
      <trkpt lat="45.44527" lon="5.48153">
        <ele>611</ele>
        <time>2022-01-18T18:50:11Z</time>
      </trkpt>
      <trkpt lat="45.44563" lon="5.48152">
        <ele>612</ele>
        <time>2022-01-18T18:50:59Z</time>
      </trkpt>
      <trkpt lat="45.44572" lon="5.48155">
        <ele>612</ele>
        <time>2022-01-18T18:51:11Z</time>
      </trkpt>
      <trkpt lat="45.44592" lon="5.48171">
        <ele>612</ele>
        <time>2022-01-18T18:51:42Z</time>
      </trkpt>
      <trkpt lat="45.44608" lon="5.48197">
        <ele>614</ele>
        <time>2022-01-18T18:52:14Z</time>
      </trkpt>
      <trkpt lat="45.44613" lon="5.48212">
        <ele>615</ele>
        <time>2022-01-18T18:52:29Z</time>
      </trkpt>
      <trkpt lat="45.44608" lon="5.48197">
        <ele>614</ele>
        <time>2022-01-18T18:52:45Z</time>
      </trkpt>
      <trkpt lat="45.44627" lon="5.48193">
        <ele>617</ele>
        <time>2022-01-18T18:53:11Z</time>
      </trkpt>
      <trkpt lat="45.44648" lon="5.48195">
        <ele>621</ele>
        <time>2022-01-18T18:53:39Z</time>
      </trkpt>
      <trkpt lat="45.44679" lon="5.48203">
        <ele>626</ele>
        <time>2022-01-18T18:54:21Z</time>
      </trkpt>
      <trkpt lat="45.44754" lon="5.48166">
        <ele>636</ele>
        <time>2022-01-18T18:56:07Z</time>
      </trkpt>
      <trkpt lat="45.44808" lon="5.48224">
        <ele>646</ele>
        <time>2022-01-18T18:57:37Z</time>
      </trkpt>
      <trkpt lat="45.44861" lon="5.48246">
        <ele>652</ele>
        <time>2022-01-18T18:58:51Z</time>
      </trkpt>
      <trkpt lat="45.4489" lon="5.48255">
        <ele>657</ele>
        <time>2022-01-18T18:59:30Z</time>
      </trkpt>
      <trkpt lat="45.44925" lon="5.48279">
        <ele>666</ele>
        <time>2022-01-18T19:00:22Z</time>
      </trkpt>
      <trkpt lat="45.4497" lon="5.48297">
        <ele>671</ele>
        <time>2022-01-18T19:01:24Z</time>
      </trkpt>
      <trkpt lat="45.45012" lon="5.48299">
        <ele>675</ele>
        <time>2022-01-18T19:02:20Z</time>
      </trkpt>
      <trkpt lat="45.45029" lon="5.48296">
        <ele>676</ele>
        <time>2022-01-18T19:02:43Z</time>
      </trkpt>
      <trkpt lat="45.45081" lon="5.48265">
        <ele>679</ele>
        <time>2022-01-18T19:03:59Z</time>
      </trkpt>
      <trkpt lat="45.45136" lon="5.48257">
        <ele>682</ele>
        <time>2022-01-18T19:05:12Z</time>
      </trkpt>
      <trkpt lat="45.45194" lon="5.48261">
        <ele>688</ele>
        <time>2022-01-18T19:06:30Z</time>
      </trkpt>
      <trkpt lat="45.45237" lon="5.48275">
        <ele>693</ele>
        <time>2022-01-18T19:07:29Z</time>
      </trkpt>
      <trkpt lat="45.45275" lon="5.48276">
        <ele>697</ele>
        <time>2022-01-18T19:08:19Z</time>
      </trkpt>
      <trkpt lat="45.45313" lon="5.48268">
        <ele>701</ele>
        <time>2022-01-18T19:09:11Z</time>
      </trkpt>
      <trkpt lat="45.45361" lon="5.48244">
        <ele>701</ele>
        <time>2022-01-18T19:10:19Z</time>
      </trkpt>
      <trkpt lat="45.45371" lon="5.48233">
        <ele>702</ele>
        <time>2022-01-18T19:10:35Z</time>
      </trkpt>
      <trkpt lat="45.45418" lon="5.48173">
        <ele>704</ele>
        <time>2022-01-18T19:12:00Z</time>
      </trkpt>
      <trkpt lat="45.45467" lon="5.48097">
        <ele>706</ele>
        <time>2022-01-18T19:13:36Z</time>
      </trkpt>
      <trkpt lat="45.45543" lon="5.48025">
        <ele>710</ele>
        <time>2022-01-18T19:15:38Z</time>
      </trkpt>
      <trkpt lat="45.45587" lon="5.47987">
        <ele>709</ele>
        <time>2022-01-18T19:16:47Z</time>
      </trkpt>
      <trkpt lat="45.45622" lon="5.47969">
        <ele>711</ele>
        <time>2022-01-18T19:17:36Z</time>
      </trkpt>
      <trkpt lat="45.45678" lon="5.4796">
        <ele>713</ele>
        <time>2022-01-18T19:18:51Z</time>
      </trkpt>
      <trkpt lat="45.45796" lon="5.47959">
        <ele>721</ele>
        <time>2022-01-18T19:21:29Z</time>
      </trkpt>
      <trkpt lat="45.45824" lon="5.47953">
        <ele>724</ele>
        <time>2022-01-18T19:22:07Z</time>
      </trkpt>
      <trkpt lat="45.4585" lon="5.47922">
        <ele>722</ele>
        <time>2022-01-18T19:22:52Z</time>
      </trkpt>
      <trkpt lat="45.45866" lon="5.47909">
        <ele>719</ele>
        <time>2022-01-18T19:23:17Z</time>
      </trkpt>
      <trkpt lat="45.45886" lon="5.47909">
        <ele>716</ele>
        <time>2022-01-18T19:23:43Z</time>
      </trkpt>
      <trkpt lat="45.45935" lon="5.47925">
        <ele>711</ele>
        <time>2022-01-18T19:24:50Z</time>
      </trkpt>
      <trkpt lat="45.45874" lon="5.4784">
        <ele>713</ele>
        <time>2022-01-18T19:26:44Z</time>
      </trkpt>
      <trkpt lat="45.45818" lon="5.47772">
        <ele>712</ele>
        <time>2022-01-18T19:28:22Z</time>
      </trkpt>
      <trkpt lat="45.4576" lon="5.47687">
        <ele>708</ele>
        <time>2022-01-18T19:30:13Z</time>
      </trkpt>
      <trkpt lat="45.45733" lon="5.47665">
        <ele>707</ele>
        <time>2022-01-18T19:30:55Z</time>
      </trkpt>
      <trkpt lat="45.45706" lon="5.47651">
        <ele>706</ele>
        <time>2022-01-18T19:31:33Z</time>
      </trkpt>
      <trkpt lat="45.45615" lon="5.47638">
        <ele>711</ele>
        <time>2022-01-18T19:33:35Z</time>
      </trkpt>
      <trkpt lat="45.45605" lon="5.47592">
        <ele>706</ele>
        <time>2022-01-18T19:34:20Z</time>
      </trkpt>
      <trkpt lat="45.45585" lon="5.47531">
        <ele>701</ele>
        <time>2022-01-18T19:35:23Z</time>
      </trkpt>
      <trkpt lat="45.4556" lon="5.47474">
        <ele>698</ele>
        <time>2022-01-18T19:36:26Z</time>
      </trkpt>
      <trkpt lat="45.45536" lon="5.47429">
        <ele>696</ele>
        <time>2022-01-18T19:37:19Z</time>
      </trkpt>
      <trkpt lat="45.45506" lon="5.47383">
        <ele>695</ele>
        <time>2022-01-18T19:38:18Z</time>
      </trkpt>
      <trkpt lat="45.45447" lon="5.47344">
        <ele>699</ele>
        <time>2022-01-18T19:39:45Z</time>
      </trkpt>
      <trkpt lat="45.45428" lon="5.47326">
        <ele>699</ele>
        <time>2022-01-18T19:40:15Z</time>
      </trkpt>
      <trkpt lat="45.45386" lon="5.47249">
        <ele>701</ele>
        <time>2022-01-18T19:41:46Z</time>
      </trkpt>
      <trkpt lat="45.45367" lon="5.47232">
        <ele>703</ele>
        <time>2022-01-18T19:42:16Z</time>
      </trkpt>
      <trkpt lat="45.45391" lon="5.47181">
        <ele>692</ele>
        <time>2022-01-18T19:43:14Z</time>
      </trkpt>
      <trkpt lat="45.45398" lon="5.47121">
        <ele>682</ele>
        <time>2022-01-18T19:44:11Z</time>
      </trkpt>
      <trkpt lat="45.45388" lon="5.47021">
        <ele>664</ele>
        <time>2022-01-18T19:45:45Z</time>
      </trkpt>
      <trkpt lat="45.45402" lon="5.46971">
        <ele>652</ele>
        <time>2022-01-18T19:46:36Z</time>
      </trkpt>
      <trkpt lat="45.45398" lon="5.46892">
        <ele>636</ele>
        <time>2022-01-18T19:47:50Z</time>
      </trkpt>
      <trkpt lat="45.45404" lon="5.46865">
        <ele>630</ele>
        <time>2022-01-18T19:48:16Z</time>
      </trkpt>
      <trkpt lat="45.45432" lon="5.46824">
        <ele>621</ele>
        <time>2022-01-18T19:49:10Z</time>
      </trkpt>
      <trkpt lat="45.45396" lon="5.46794">
        <ele>620</ele>
        <time>2022-01-18T19:50:06Z</time>
      </trkpt>
      <trkpt lat="45.45371" lon="5.46781">
        <ele>620</ele>
        <time>2022-01-18T19:50:41Z</time>
      </trkpt>
      <trkpt lat="45.45348" lon="5.46781">
        <ele>621</ele>
        <time>2022-01-18T19:51:12Z</time>
      </trkpt>
      <trkpt lat="45.45327" lon="5.46762">
        <ele>620</ele>
        <time>2022-01-18T19:51:45Z</time>
      </trkpt>
      <trkpt lat="45.45303" lon="5.46732">
        <ele>623</ele>
        <time>2022-01-18T19:52:28Z</time>
      </trkpt>
      <trkpt lat="45.45281" lon="5.46689">
        <ele>626</ele>
        <time>2022-01-18T19:53:17Z</time>
      </trkpt>
      <trkpt lat="45.4533" lon="5.4671">
        <ele>623</ele>
        <time>2022-01-18T19:54:26Z</time>
      </trkpt>
      <trkpt lat="45.45395" lon="5.46724">
        <ele>622</ele>
        <time>2022-01-18T19:55:53Z</time>
      </trkpt>
      <trkpt lat="45.45516" lon="5.46777">
        <ele>618</ele>
        <time>2022-01-18T19:58:42Z</time>
      </trkpt>
      <trkpt lat="45.45555" lon="5.46776">
        <ele>613</ele>
        <time>2022-01-18T19:59:34Z</time>
      </trkpt>
      <trkpt lat="45.45637" lon="5.46767">
        <ele>602</ele>
        <time>2022-01-18T20:01:24Z</time>
      </trkpt>
      <trkpt lat="45.45666" lon="5.46758">
        <ele>596</ele>
        <time>2022-01-18T20:02:04Z</time>
      </trkpt>
      <trkpt lat="45.45707" lon="5.46752">
        <ele>588</ele>
        <time>2022-01-18T20:02:59Z</time>
      </trkpt>
      <trkpt lat="45.458" lon="5.46768">
        <ele>577</ele>
        <time>2022-01-18T20:05:04Z</time>
      </trkpt>
      <trkpt lat="45.4582" lon="5.46761">
        <ele>573</ele>
        <time>2022-01-18T20:05:31Z</time>
      </trkpt>
      <trkpt lat="45.45834" lon="5.4674">
        <ele>568</ele>
        <time>2022-01-18T20:05:58Z</time>
      </trkpt>
      <trkpt lat="45.45845" lon="5.46707">
        <ele>567</ele>
        <time>2022-01-18T20:06:33Z</time>
      </trkpt>
      <trkpt lat="45.45933" lon="5.46563">
        <ele>550</ele>
        <time>2022-01-18T20:09:31Z</time>
      </trkpt>
      <trkpt lat="45.45955" lon="5.4651">
        <ele>544</ele>
        <time>2022-01-18T20:10:29Z</time>
      </trkpt>
      <trkpt lat="45.45963" lon="5.46478">
        <ele>542</ele>
        <time>2022-01-18T20:11:01Z</time>
      </trkpt>
      <trkpt lat="45.45964" lon="5.46445">
        <ele>539</ele>
        <time>2022-01-18T20:11:32Z</time>
      </trkpt>
      <trkpt lat="45.45959" lon="5.46383">
        <ele>534</ele>
        <time>2022-01-18T20:12:30Z</time>
      </trkpt>
      <trkpt lat="45.45952" lon="5.46343">
        <ele>529</ele>
        <time>2022-01-18T20:13:09Z</time>
      </trkpt>
      <trkpt lat="45.45923" lon="5.46281">
        <ele>520</ele>
        <time>2022-01-18T20:14:18Z</time>
      </trkpt>
      <trkpt lat="45.45911" lon="5.46237">
        <ele>517</ele>
        <time>2022-01-18T20:15:03Z</time>
      </trkpt>
      <trkpt lat="45.45908" lon="5.46206">
        <ele>514</ele>
        <time>2022-01-18T20:15:32Z</time>
      </trkpt>
      <trkpt lat="45.45914" lon="5.46171">
        <ele>509</ele>
        <time>2022-01-18T20:16:06Z</time>
      </trkpt>
      <trkpt lat="45.45951" lon="5.46081">
        <ele>503</ele>
        <time>2022-01-18T20:17:43Z</time>
      </trkpt>
      <trkpt lat="45.45961" lon="5.46034">
        <ele>498</ele>
        <time>2022-01-18T20:18:29Z</time>
      </trkpt>
      <trkpt lat="45.45962" lon="5.45973">
        <ele>491</ele>
        <time>2022-01-18T20:19:26Z</time>
      </trkpt>
      <trkpt lat="45.45957" lon="5.45922">
        <ele>486</ele>
        <time>2022-01-18T20:20:15Z</time>
      </trkpt>
      <trkpt lat="45.45957" lon="5.45833">
        <ele>481</ele>
        <time>2022-01-18T20:21:38Z</time>
      </trkpt>
      <trkpt lat="45.45963" lon="5.45794">
        <ele>476</ele>
        <time>2022-01-18T20:22:15Z</time>
      </trkpt>
      <trkpt lat="45.4591" lon="5.45785">
        <ele>478</ele>
        <time>2022-01-18T20:23:27Z</time>
      </trkpt>
      <trkpt lat="45.45906" lon="5.4578">
        <ele>479</ele>
        <time>2022-01-18T20:23:34Z</time>
      </trkpt>
      <trkpt lat="45.45904" lon="5.4577">
        <ele>479</ele>
        <time>2022-01-18T20:23:43Z</time>
      </trkpt>
      <trkpt lat="45.45938" lon="5.45635">
        <ele>465</ele>
        <time>2022-01-18T20:25:58Z</time>
      </trkpt>
      <trkpt lat="45.45943" lon="5.45629">
        <ele>464</ele>
        <time>2022-01-18T20:26:06Z</time>
      </trkpt>
    </trkseg>
  </trk>
</gpx>